Grants Lick, Kentucky
Current Conditions -  °F | °C
As of 4:53 PM on Thursday 27 Nov 2014 (Local Time) from KLUK Reporting Station
Overcast Overcast  
Wind Chill: 23°   Ceiling: 2700
Heat Index: 32°   Visibility: 9mi
Dew Point: 23°   Wind: 12mph
Humidity: 69%   Direction: 260°W
Pressure: 30.35"   Gusts: NA
Location:  38.9134°N, 84.39°W
Report Text: KLUK 272153Z 26010KT 9SM BKN027 OVC033 00/M05 A3035 RMK AO2 SLP281 T00001050
Loading
Personal Weather Stations






























Interactive Weather Map New forecast layout! Learn more

10-Day Weather Forecast

Advertisements
Track Severe Weather on mobile